ADDS METAR Data INFO
IDs: Format: Raw Decoded Include TAF

Data at: 2038 UTC 19 Jul 2018

KSFY 192015Z AUTO 14013G18KT 10SM SCT060 24/19 A2984 RMK AO2 PWINO
KSFY 191955Z AUTO 15010G14KT 10SM CLR 23/19 A2985 RMK AO2 LTG DSNT NW PWINO
KSFY 191935Z AUTO 13008KT 10SM CLR 21/18 A2986 RMK AO2 LTG DSNT E PWINO
KSFY 191915Z AUTO 14004KT 10SM SCT038 SCT055 SCT070 19/18 A2988 RMK AO2 LTG DSNT SE S AND NW PWINO
KSFY 191855Z AUTO 16005G08KT 7SM SCT040 SCT055 OVC095 19/18 A2988 RMK AO2 LTG DSNT S P0002 PWINO
KSFY 191835Z AUTO 12012KT 7SM TSMM OVC095 19/18 A2988 RMK AO2 LTG DSNT SE S AND NW P0001
KSFY 191815Z AUTO 13008KT 5SM SCT070 OVC095 19/18 A2991 RMK AO2 LTG DSNT S P0001 PWINO
KSFY 191755Z AUTO 09003KT 3SM VCTSMM SCT070 OVC095 19/18 A2993 RMK AO2 LTG DSNT S AND SW
KSFY 191735Z AUTO 00000KT 2SM OVC085 20/17 A2994 RMK AO2 LTG DSNT S AND SW PWINO
KSFY 191716Z AUTO 00000KT 7SM BKN075 OVC090 21/17 A2994 RMK AO2 LTG DSNT SW PWINO
KSFY 191655Z AUTO 00000KT 10SM OVC080 21/17 A2994 RMK AO2 LTG DSNT SW PWINO
KSFY 191636Z AUTO 16004KT 10SM BKN070 OVC090 22/16 A2995 RMK AO2 LTG DSNT SW PWINO
KSFY 191616Z AUTO 15004KT 10SM SCT070 OVC090 23/15 A2994 RMK AO2 LTG DSNT SW PWINO
KSFY 191554Z AUTO 15006KT 10SM SCT080 OVC100 24/14 A2994 RMK AO2 PWINO
KSFY 191535Z AUTO 14007KT 10SM BKN100 23/14 A2994 RMK AO2 LTG DSNT SW AND W PWINO
KSFY 191515Z AUTO 14008KT 10SM SCT100 23/14 A2995 RMK AO2 LTG DSNT W PWINO
KSFY 191455Z AUTO 13007KT 10SM SCT120 22/14 A2995 RMK AO2 LTG DSNT W PWINO
KSFY 191435Z AUTO 14006KT 10SM SCT120 22/14 A2996 RMK AO2 PWINO
KSFY 191415Z AUTO 13006KT 10SM CLR 21/14 A2996 RMK AO2 PWINO
KSFY 191355Z AUTO 11005KT 10SM CLR 21/14 A2998 RMK AO2 LTG DSNT W PWINO
KSFY 191336Z AUTO 12004KT 10SM SCT100 20/14 A2999 RMK AO2 PWINO
KSFY 191315Z AUTO 10005KT 10SM SCT110 19/14 A2999 RMK AO2 PWINO
KSFY 191255Z AUTO 11003KT 10SM CLR 18/14 A2999 RMK AO2 LTG DSNT S AND W
KSFY 191215Z AUTO 00000KT 10SM CLR 17/14 A2999 RMK AO2
KSFY 191155Z AUTO 00000KT 10SM CLR 17/14 A2999 RMK AO2
KSFY 191136Z AUTO 05003KT 10SM CLR 17/14 A3000 RMK AO2 LTG DSNT W
KSFY 191116Z AUTO 00000KT 10SM CLR 16/14 A3000 RMK AO2 LTG DSNT SW AND W
KSFY 191055Z AUTO 00000KT 10SM CLR 16/13 A3000 RMK AO2 LTG DSNT W
KSFY 191036Z AUTO 00000KT 10SM CLR 16/13 A3001 RMK AO2 LTG DSNT W
KSFY 191015Z AUTO 00000KT 10SM CLR 15/13 A3000 RMK AO2
KSFY 190955Z AUTO 00000KT 10SM CLR 15/13 A3001 RMK AO2
KSFY 190935Z AUTO 00000KT 10SM CLR 16/13 A3001 RMK AO2
KSFY 190915Z AUTO 00000KT 10SM CLR 16/13 A3001 RMK AO2 LTG DSNT SW
KSFY 190856Z AUTO 00000KT 10SM CLR 16/13 A3000 RMK AO2
KSFY 190835Z AUTO 00000KT 10SM CLR 16/13 A3001 RMK AO2
KSFY 190815Z AUTO 00000KT 10SM CLR 17/13 A3001 RMK AO2
KSFY 190755Z AUTO 00000KT 10SM CLR 17/13 A3001 RMK AO2
KSFY 190735Z AUTO 00000KT 10SM CLR 17/14 A3002 RMK AO2
KSFY 190717Z AUTO 13003KT 10SM CLR 17/14 A3002 RMK AO2 LTG DSNT W
KSFY 190656Z AUTO 00000KT 10SM CLR 17/15 A3003 RMK AO2
KSFY 190634Z AUTO 00000KT 10SM CLR 17/15 A3003 RMK AO2
KSFY 190615Z AUTO 15003KT 10SM CLR 17/15 A3003 RMK AO2 PWINO
KSFY 190555Z AUTO 14004KT 10SM CLR 18/16 A3004 RMK AO2 PWINO
KSFY 190535Z AUTO 00000KT 10SM CLR 17/16 A3004 RMK AO2 PWINO
KSFY 190515Z AUTO 07003KT 10SM CLR 18/16 A3004 RMK AO2 LTG DSNT W PWINO
KSFY 190455Z AUTO 00000KT 10SM CLR 18/16 A3004 RMK AO2 PWINO
KSFY 190435Z AUTO 00000KT 10SM CLR 18/16 A3003 RMK AO2 PWINO
KSFY 190415Z AUTO 14003KT 10SM CLR 18/16 A3004 RMK AO2 PWINO
KSFY 190355Z AUTO 13003KT 10SM CLR 18/17 A3004 RMK AO2 PWINO
KSFY 190315Z AUTO 00000KT 10SM CLR 18/17 A3004 RMK AO2 PWINO
KSFY 190255Z AUTO 00000KT 10SM CLR 19/18 A3003 RMK AO2 PWINO
KSFY 190236Z AUTO 11004KT 10SM CLR 19/18 A3003 RMK AO2 PWINO
KSFY 190215Z AUTO 13003KT 10SM CLR 20/18 A3003 RMK AO2 PWINO
KSFY 190155Z AUTO 14003KT 10SM CLR 21/18 A3002 RMK AO2 PWINO
KSFY 190135Z AUTO 14003KT 10SM CLR 22/18 A3002 RMK AO2 PWINO
KSFY 190115Z AUTO 00000KT 10SM CLR 22/18 A3002 RMK AO2 PWINO
KSFY 190056Z AUTO 10004KT 10SM CLR 23/18 A3001 RMK AO2 PWINO
KSFY 190037Z AUTO 11004KT 10SM CLR 24/18 A3002 RMK AO2 PWINO
KSFY 182355Z AUTO 14004KT 10SM CLR 26/18 A3003 RMK AO2 PWINO
KSFY 182315Z AUTO 13006KT 10SM CLR 26/17 A3003 RMK AO2 PWINO
KSFY 182257Z AUTO 14006KT 10SM CLR 26/17 A3003 RMK AO2 PWINO
KSFY 182235Z AUTO 13007KT 10SM CLR 27/17 A3003 RMK AO2 PWINO
KSFY 182217Z AUTO 14005KT 10SM CLR 27/17 A3004 RMK AO2 PWINO
KSFY 182156Z AUTO 14004KT 10SM CLR 27/17 A3005 RMK AO2 PWINO
KSFY 182136Z AUTO 10005KT 10SM CLR 27/16 A3005 RMK AO2 PWINO
KSFY 182115Z AUTO 14005KT 10SM CLR 28/16 A3006 RMK AO2 PWINO
KSFY 182055Z AUTO 15006KT 10SM SCT055 26/17 A3006 RMK AO2 PWINO
KSFY 182035Z AUTO 15005KT 10SM SCT050 SCT055 26/17 A3007 RMK AO2 PWINO
KSFY 182015Z AUTO 13003KT 10SM SCT045 BKN055 26/17 A3008 RMK AO2 PWINO
KSFY 181955Z AUTO 15004KT 10SM SCT045 SCT055 27/16 A3008 RMK AO2 PWINO
KSFY 181935Z AUTO 17006KT 10SM BKN055 27/17 A3008 RMK AO2 PWINO
KSFY 181916Z AUTO 15006KT 10SM BKN046 OVC055 26/16 A3009 RMK AO2 PWINO
KSFY 181855Z AUTO 15006KT 10SM BKN046 OVC055 26/16 A3009 RMK AO2 PWINO
KSFY 181835Z AUTO 14007KT 10SM SCT043 BKN055 26/16 A3010 RMK AO2 PWINO
KSFY 181756Z AUTO 13004KT 10SM SCT040 BKN048 BKN055 26/17 A3010 RMK AO2 PWINO
KSFY 181715Z AUTO 15005KT 10SM SCT040 BKN055 26/16 A3012 RMK AO2 PWINO
KSFY 181656Z AUTO 15004KT 10SM SCT055 26/16 A3012 RMK AO2 PWINO
KSFY 181636Z AUTO 13007KT 10SM SCT055 25/17 A3012 RMK AO2 PWINO
KSFY 181616Z AUTO 15006KT 10SM CLR 25/17 A3012 RMK AO2 PWINO
KSFY 181556Z AUTO 14004KT 10SM CLR 25/17 A3013 RMK AO2 PWINO
KSFY 181535Z AUTO 11005KT 10SM SCT060 24/17 A3013 RMK AO2 PWINO
KSFY 181516Z AUTO 15005KT 10SM SCT060 23/17 A3012 RMK AO2 PWINO
KSFY 181456Z AUTO 11005KT 10SM CLR 23/17 A3013 RMK AO2 PWINO
KSFY 181435Z AUTO 14005KT 10SM CLR 22/16 A3013 RMK AO2 PWINO
KSFY 181415Z AUTO 15004KT 10SM CLR 22/16 A3014 RMK AO2 PWINO
KSFY 181356Z AUTO 14005KT 10SM CLR 21/16 A3013 RMK AO2 PWINO
KSFY 181335Z AUTO 00000KT 10SM CLR 21/17 A3013 RMK AO2 PWINO
KSFY 181315Z AUTO 00000KT 10SM CLR 19/16 A3014 RMK AO2 PWINO
KSFY 181255Z AUTO 06003KT 10SM CLR 19/16 A3014 RMK AO2 PWINO
KSFY 181235Z AUTO 00000KT 10SM CLR 18/16 A3014 RMK AO2 PWINO
KSFY 181215Z AUTO 06004KT 10SM CLR 17/16 A3013 RMK AO2
KSFY 181155Z AUTO 00000KT 10SM CLR 17/16 A3013 RMK AO2
KSFY 181135Z AUTO 06003KT 10SM CLR 16/15 A3013 RMK AO2
KSFY 181115Z AUTO 00000KT 10SM CLR 15/14 A3013 RMK AO2
KSFY 181055Z AUTO 06004KT 10SM CLR 15/14 A3013 RMK AO2
KSFY 181036Z AUTO 07004KT 10SM CLR 14/14 A3013 RMK AO2
KSFY 181016Z AUTO 07003KT 10SM CLR 15/14 A3013 RMK AO2
KSFY 180955Z AUTO 06003KT 10SM CLR 15/14 A3012 RMK AO2
KSFY 180935Z AUTO 00000KT 10SM CLR 15/14 A3013 RMK AO2
KSFY 180915Z AUTO 06003KT 10SM CLR 16/14 A3013 RMK AO2
KSFY 180856Z AUTO 12003KT 10SM CLR 17/15 A3013 RMK AO2